createdAt,value
2023-03-03T00:02:50.121Z,101016.31
2023-03-03T00:08:54.355Z,101018.56
2023-03-03T00:14:58.731Z,101003.44
2023-03-03T00:21:05.583Z,100998.34
2023-03-03T00:27:36.269Z,100983.28
2023-03-03T00:34:00.673Z,100979.13
2023-03-03T00:40:26.035Z,100963.41
2023-03-03T00:46:31.214Z,100964.84
2023-03-03T00:52:41.926Z,100954.53
2023-03-03T00:58:48.564Z,100945.72
2023-03-03T01:04:57.772Z,100942.66
2023-03-03T01:11:09.676Z,100943.72
2023-03-03T01:17:15.539Z,100924.53
2023-03-03T01:23:18.761Z,100924.63
2023-03-03T01:29:25.711Z,100922.03
2023-03-03T01:35:30.544Z,100928.31
2023-03-03T01:41:36.033Z,100917.25
2023-03-03T01:47:50.157Z,100913.31
2023-03-03T01:53:58.732Z,100910.53
2023-03-03T02:00:05.634Z,100902.72
2023-03-03T02:06:39.389Z,100898.88
2023-03-03T02:12:48.256Z,100902.56
2023-03-03T02:18:55.577Z,100900.69
2023-03-03T02:25:03.987Z,100890.31
2023-03-03T02:31:19.342Z,100869.13
2023-03-03T02:37:26.982Z,100876.31
2023-03-03T02:43:44.927Z,100867.34
2023-03-03T02:49:47.393Z,100867.97
2023-03-03T02:55:54.220Z,100862.97
2023-03-03T03:01:56.894Z,100859.06
2023-03-03T03:08:01.166Z,100854.16
2023-03-03T03:14:10.961Z,100851.03
2023-03-03T03:20:16.350Z,100852.31
2023-03-03T03:26:22.265Z,100841.94
2023-03-03T03:32:30.246Z,100842.75
2023-03-03T03:38:38.118Z,100846.31
2023-03-03T03:44:43.156Z,100837.28
2023-03-03T03:50:49.375Z,100835.59
2023-03-03T03:56:52.463Z,100836.72
2023-03-03T04:02:56.533Z,100823.06
2023-03-03T04:09:02.525Z,100826.31
2023-03-03T04:15:10.728Z,100822.91
2023-03-03T04:21:17.180Z,100823.91
2023-03-03T04:27:22.827Z,100819.59
2023-03-03T04:33:26.941Z,100830.59
2023-03-03T04:39:30.895Z,100830.13
2023-03-03T04:45:34.839Z,100814.16
2023-03-03T04:51:37.602Z,100812.44
2023-03-03T04:57:46.560Z,100815.75
2023-03-03T05:03:50.285Z,100821.06
2023-03-03T12:19:24.785Z,100580.22
2023-03-03T12:33:36.399Z,100579.16
2023-03-03T12:40:43.535Z,100565.75
2023-03-03T12:47:36.745Z,100562.25
2023-03-03T12:54:44.583Z,100572.56
2023-03-03T13:08:47.592Z,100545.19
2023-03-03T13:16:01.059Z,100548.75
2023-03-03T13:29:48.042Z,100551.44
2023-03-03T13:43:33.587Z,100546.47
2023-03-03T13:50:19.277Z,100541.69
2023-03-03T13:57:17.068Z,100545.69
2023-03-03T14:04:04.957Z,100539.22
2023-03-03T14:10:36.522Z,100534.25
2023-03-03T14:17:13.047Z,100543.13
2023-03-03T14:23:45.066Z,100530.66
2023-03-03T14:29:48.560Z,100526.75
2023-03-03T14:36:12.545Z,100523.78
2023-03-03T14:42:33.952Z,100526.53
2023-03-03T14:48:52.334Z,100533.88
2023-03-03T14:54:57.648Z,100527.25
2023-03-03T15:01:26.540Z,100532.56
2023-03-03T15:07:38.362Z,100532.09
2023-03-03T15:13:40.914Z,100524.72
2023-03-03T15:19:52.404Z,100525.50
2023-03-03T15:26:19.426Z,100525.91
2023-03-03T15:32:31.420Z,100532.41
2023-03-03T15:38:47.605Z,100532.88
2023-03-03T15:45:06.557Z,100532.19
2023-03-03T15:51:50.740Z,100533.19
2023-03-03T15:58:37.041Z,100545.91
2023-03-03T16:05:01.809Z,100547.81
2023-03-03T16:11:19.278Z,100555.97
2023-03-03T16:17:35.118Z,100549.09
2023-03-03T16:23:58.241Z,100561.78
2023-03-03T16:30:46.644Z,100564.50
2023-03-03T16:37:10.053Z,100578.25
2023-03-03T16:43:16.363Z,100583.38
2023-03-03T16:49:43.500Z,100585.16
2023-03-03T16:56:14.637Z,100592.19
2023-03-03T17:02:46.602Z,100594.03
2023-03-03T17:09:03.670Z,100596.50
2023-03-03T17:15:17.894Z,100593.66
2023-03-03T17:21:30.215Z,100603.09
2023-03-03T17:27:50.531Z,100599.44
2023-03-03T17:34:16.399Z,100591.56
2023-03-03T17:41:03.493Z,100602.28
2023-03-03T17:47:13.448Z,100612.03
2023-03-03T17:53:40.086Z,100622.09
2023-03-03T17:59:42.163Z,100623.13
2023-03-03T18:06:03.058Z,100620.00
2023-03-03T18:12:10.645Z,100623.13
2023-03-03T18:18:26.749Z,100627.34
2023-03-03T18:24:33.935Z,100639.97
2023-03-03T18:31:05.362Z,100634.00
2023-03-03T18:37:37.482Z,100636.63
2023-03-03T18:43:46.108Z,100634.50
2023-03-03T18:49:48.719Z,100633.22
2023-03-03T18:55:54.298Z,100635.59
2023-03-03T19:02:11.492Z,100634.28
2023-03-03T19:08:25.084Z,100639.25
2023-03-03T19:14:34.696Z,100647.66
2023-03-03T19:20:42.236Z,100653.13
2023-03-03T19:27:09.610Z,100662.56
2023-03-03T19:33:28.324Z,100663.63
2023-03-03T19:39:59.166Z,100673.31
2023-03-03T19:46:38.302Z,100666.78
2023-03-03T19:52:57.896Z,100662.38
2023-03-03T19:59:06.526Z,100674.69
2023-03-03T20:05:20.853Z,100669.44
2023-03-03T20:11:48.189Z,100671.53
2023-03-03T20:18:10.169Z,100683.00
2023-03-03T20:24:43.614Z,100684.59
2023-03-03T20:30:49.624Z,100684.19
2023-03-03T20:37:13.261Z,100683.97
2023-03-03T20:43:43.993Z,100676.53
2023-03-03T20:50:20.327Z,100679.16
2023-03-03T20:56:52.514Z,100685.50
2023-03-03T21:02:57.335Z,100680.78
2023-03-03T21:08:59.538Z,100692.22
2023-03-03T21:15:08.146Z,100693.34
2023-03-03T21:21:10.470Z,100696.78
2023-03-03T21:27:25.872Z,100694.97
2023-03-03T21:33:45.315Z,100694.09
2023-03-03T21:40:25.257Z,100696.56
2023-03-03T21:46:27.931Z,100699.97
2023-03-03T21:52:30.616Z,100708.47
2023-03-03T21:58:37.105Z,100700.94
2023-03-03T22:04:41.334Z,100707.88
2023-03-03T22:10:43.589Z,100701.22
2023-03-03T22:16:46.042Z,100692.22
2023-03-03T22:22:48.249Z,100694.69
2023-03-03T22:28:50.410Z,100696.91
2023-03-03T22:34:52.701Z,100694.53
2023-03-03T22:40:55.971Z,100696.22
2023-03-03T22:46:58.118Z,100691.00
2023-03-03T22:53:01.574Z,100697.03
2023-03-03T22:59:03.628Z,100691.72
2023-03-03T23:05:11.173Z,100682.03
2023-03-03T23:11:13.836Z,100677.91
2023-03-03T23:17:16.026Z,100676.06
2023-03-03T23:23:18.109Z,100682.50
2023-03-03T23:29:20.570Z,100689.97
2023-03-03T23:35:22.964Z,100672.91
2023-03-03T23:41:26.527Z,100681.41
2023-03-03T23:47:28.716Z,100684.75
2023-03-03T23:53:31.126Z,100682.34
2023-03-03T23:59:33.296Z,100690.72
